METAR Data
IDs: Format: Raw Decoded Include TAF

Data at: 0543 UTC 25 Sep 2018

METAR for:KJAQ (Jackson/Westover Fld, CA, US)
Text:KJAQ 250515Z AUTO 00000KT 10SM CLR 23/02 A2989 RMK AO1 T02270022
Temperature: 22.7°C ( 73°F)
Dewpoint: 2.2°C ( 36°F) [RH = 26%]
Pressure (altimeter):29.89 inches Hg (1012.3 mb)
Winds:calm
Visibility:10 or more sm (16+ km)
Ceiling:at least 12,000 feet AGL
Clouds:sky clear below 12,000 feet AGL
QC Flag:automated observation with no human augmentation
Text:KJAQ 250455Z AUTO 35003KT 10SM CLR 24/02 A2989 RMK AO1 T02400018
Temperature: 24.0°C ( 75°F)
Dewpoint: 1.8°C ( 35°F) [RH = 23%]
Pressure (altimeter):29.89 inches Hg (1012.3 mb)
Winds:from the N (350 degrees) at 3 MPH (3 knots; 1.5 m/s)
Visibility:10 or more sm (16+ km)
Ceiling:at least 12,000 feet AGL
Clouds:sky clear below 12,000 feet AGL
QC Flag:automated observation with no human augmentation